createdAt,value
2018-05-19T00:00:18.187Z,12.00
2018-05-19T00:01:18.170Z,14.20
2018-05-19T00:02:18.148Z,17.10
2018-05-19T00:03:18.187Z,17.30
2018-05-19T00:04:18.111Z,15.20
2018-05-19T00:05:18.092Z,12.90
2018-05-19T00:06:18.133Z,13.20
2018-05-19T00:07:18.082Z,13.20
2018-05-19T00:08:18.047Z,19.60
2018-05-19T00:09:18.020Z,13.60
2018-05-19T00:10:18.005Z,14.70
2018-05-19T00:11:17.997Z,13.70
2018-05-19T00:12:17.979Z,12.00
2018-05-19T00:13:17.954Z,14.40
2018-05-19T00:14:17.937Z,14.10
2018-05-19T00:15:17.914Z,17.60
2018-05-19T00:16:17.901Z,17.80
2018-05-19T00:17:17.879Z,16.30
2018-05-19T00:18:17.862Z,15.60
2018-05-19T00:19:17.848Z,15.10
2018-05-19T00:20:17.826Z,13.50
2018-05-19T00:21:17.813Z,16.10
2018-05-19T00:22:17.793Z,16.10
2018-05-19T00:23:17.772Z,16.50
2018-05-19T00:24:17.756Z,14.20
2018-05-19T00:25:17.736Z,18.40
2018-05-19T00:26:17.720Z,13.40
2018-05-19T00:27:17.699Z,17.20
2018-05-19T00:28:17.690Z,13.60
2018-05-19T00:29:17.663Z,11.90
2018-05-19T00:30:17.648Z,16.60
2018-05-19T00:31:17.628Z,14.70
2018-05-19T00:32:17.609Z,14.70
2018-05-19T00:33:17.591Z,13.40
2018-05-19T00:34:17.585Z,13.00
2018-05-19T00:35:17.559Z,12.40
2018-05-19T00:36:17.540Z,16.40
2018-05-19T00:37:17.519Z,17.90
2018-05-19T00:38:17.505Z,16.60
2018-05-19T00:39:17.484Z,16.70
2018-05-19T00:40:17.475Z,13.50
2018-05-19T00:41:17.449Z,16.00
2018-05-19T00:42:17.433Z,19.10
2018-05-19T00:43:17.416Z,17.60
2018-05-19T00:44:17.404Z,18.00
2018-05-19T00:45:17.380Z,17.00
2018-05-19T00:46:17.360Z,17.00
2018-05-19T00:47:17.342Z,17.60
2018-05-19T00:48:17.329Z,19.30
2018-05-19T00:49:17.307Z,18.30
2018-05-19T00:50:17.292Z,15.30
2018-05-19T00:51:17.271Z,21.10
2018-05-19T00:52:17.253Z,18.10
2018-05-19T00:53:17.233Z,16.50
2018-05-19T00:54:17.216Z,14.20
2018-05-19T00:55:17.199Z,15.70
2018-05-19T00:56:17.178Z,14.90
2018-05-19T00:57:17.158Z,15.80
2018-05-19T00:58:17.146Z,15.90
2018-05-19T00:59:17.133Z,17.00
2018-05-19T01:00:17.107Z,16.00
2018-05-19T01:01:17.088Z,17.10
2018-05-19T01:02:17.074Z,14.90
2018-05-19T01:03:17.058Z,14.40
2018-05-19T01:04:17.044Z,14.70
2018-05-19T01:05:17.022Z,14.70
2018-05-19T01:06:17.011Z,16.60
2018-05-19T01:07:16.979Z,11.60
2018-05-19T01:08:16.965Z,14.10
2018-05-19T01:09:16.947Z,14.50
2018-05-19T01:10:16.930Z,13.60
2018-05-19T01:11:16.907Z,15.20
2018-05-19T01:12:16.893Z,18.80
2018-05-19T01:13:16.872Z,15.00
2018-05-19T01:14:16.858Z,16.30
2018-05-19T01:15:16.845Z,16.00
2018-05-19T01:16:16.817Z,15.10
2018-05-19T01:17:16.798Z,19.80
2018-05-19T01:18:16.783Z,14.10
2018-05-19T01:19:16.769Z,17.30
2018-05-19T01:20:16.749Z,15.40
2018-05-19T01:21:16.727Z,16.80
2018-05-19T01:22:16.710Z,13.50
2018-05-19T01:23:16.696Z,13.70
2018-05-19T01:24:16.682Z,16.00
2018-05-19T01:25:16.665Z,15.20
2018-05-19T01:26:16.640Z,15.40
2018-05-19T01:27:16.619Z,16.40
2018-05-19T01:28:16.605Z,14.40
2018-05-19T01:29:16.593Z,20.90
2018-05-19T01:30:16.598Z,19.90
2018-05-19T01:31:16.549Z,16.10
2018-05-19T01:32:16.529Z,14.50
2018-05-19T01:33:16.512Z,15.50
2018-05-19T01:34:16.499Z,15.40
2018-05-19T01:35:16.476Z,15.80
2018-05-19T01:36:16.458Z,16.90
2018-05-19T01:37:16.441Z,20.30
2018-05-19T01:38:16.421Z,17.90
2018-05-19T01:39:16.404Z,16.80
2018-05-19T01:40:16.388Z,14.30
2018-05-19T01:41:16.370Z,18.70
2018-05-19T01:42:16.351Z,18.00
2018-05-19T01:43:16.331Z,15.30
2018-05-19T01:44:16.325Z,17.00
2018-05-19T01:45:16.293Z,13.80
2018-05-19T01:46:16.279Z,18.70
2018-05-19T01:47:16.256Z,17.30
2018-05-19T01:48:16.249Z,18.10
2018-05-19T01:49:16.222Z,16.30
2018-05-19T01:50:16.208Z,17.10
2018-05-19T01:51:16.183Z,19.10
2018-05-19T01:52:16.171Z,19.80
2018-05-19T01:53:16.148Z,23.00
2018-05-19T01:54:16.128Z,16.80
2018-05-19T01:55:16.113Z,21.20
2018-05-19T01:56:16.098Z,19.90
2018-05-19T01:57:16.077Z,14.50
2018-05-19T01:58:16.057Z,13.20
2018-05-19T01:59:16.041Z,15.80
2018-05-19T02:00:16.020Z,14.40
2018-05-19T02:01:16.015Z,15.30
2018-05-19T02:02:15.989Z,15.50
2018-05-19T02:03:15.968Z,17.80
2018-05-19T02:04:15.946Z,15.90
2018-05-19T02:05:15.936Z,16.20
2018-05-19T02:06:15.911Z,15.90
2018-05-19T02:07:15.892Z,20.40
2018-05-19T02:08:15.876Z,19.90
2018-05-19T02:09:15.858Z,19.10
2018-05-19T02:10:15.840Z,19.40
2018-05-19T02:11:15.826Z,17.10
2018-05-19T02:12:15.804Z,21.70
2018-05-19T02:13:15.784Z,19.80
2018-05-19T02:14:15.765Z,20.70
2018-05-19T02:15:15.746Z,20.10
2018-05-19T02:16:15.800Z,21.10
2018-05-19T02:17:15.721Z,19.40
2018-05-19T02:18:15.694Z,17.60
2018-05-19T02:19:15.680Z,18.40
2018-05-19T02:20:15.661Z,19.70
2018-05-19T02:21:15.640Z,19.70
2018-05-19T02:22:15.620Z,17.70
2018-05-19T02:23:15.603Z,17.90
2018-05-19T02:24:15.584Z,18.00
2018-05-19T02:25:15.564Z,20.40
2018-05-19T02:26:15.546Z,18.40
2018-05-19T02:27:15.529Z,17.70
2018-05-19T02:28:15.509Z,19.80
2018-05-19T02:29:15.487Z,17.40
2018-05-19T02:30:15.473Z,16.90
2018-05-19T02:31:15.457Z,17.90
2018-05-19T02:32:15.436Z,16.00
2018-05-19T02:33:15.426Z,17.50
2018-05-19T02:34:15.400Z,16.90
2018-05-19T02:35:15.384Z,17.50
2018-05-19T02:36:15.363Z,20.20
2018-05-19T02:37:15.348Z,16.60
2018-05-19T02:38:15.323Z,21.00
2018-05-19T02:39:15.316Z,20.60
2018-05-19T02:40:15.290Z,17.40
2018-05-19T02:41:15.270Z,18.60
2018-05-19T02:42:15.252Z,15.80
2018-05-19T02:43:15.236Z,18.60
2018-05-19T02:44:15.219Z,21.50
2018-05-19T02:45:15.197Z,17.80
2018-05-19T02:46:15.181Z,19.20
2018-05-19T02:47:15.164Z,18.10
2018-05-19T02:48:15.139Z,19.70
2018-05-19T02:49:15.126Z,15.60
2018-05-19T02:50:15.105Z,16.70
2018-05-19T02:51:15.088Z,17.80
2018-05-19T02:52:15.075Z,18.40
2018-05-19T02:53:15.047Z,18.50
2018-05-19T02:54:15.032Z,19.20
2018-05-19T02:55:15.071Z,18.00
2018-05-19T02:56:14.998Z,16.90
2018-05-19T02:57:14.975Z,17.40
2018-05-19T02:58:14.961Z,19.40
2018-05-19T02:59:14.940Z,15.80
2018-05-19T03:00:14.919Z,18.50
2018-05-19T03:01:14.905Z,16.40
2018-05-19T03:02:14.884Z,17.00
2018-05-19T03:03:14.866Z,16.30
2018-05-19T03:04:14.851Z,15.10
2018-05-19T03:05:14.833Z,16.60
2018-05-19T03:06:14.809Z,18.00
2018-05-19T03:07:14.791Z,15.90
2018-05-19T03:08:14.772Z,20.90
2018-05-19T03:09:14.755Z,20.40
2018-05-19T03:10:14.753Z,17.90
2018-05-19T03:11:14.716Z,17.30
2018-05-19T03:12:14.702Z,19.50
2018-05-19T03:13:14.677Z,16.30
2018-05-19T03:14:14.662Z,17.30
2018-05-19T03:15:14.644Z,18.70
2018-05-19T03:16:14.637Z,19.40
2018-05-19T03:17:14.688Z,18.40
2018-05-19T03:18:14.590Z,18.20
2018-05-19T03:19:14.568Z,20.70
2018-05-19T03:20:14.552Z,18.40
2018-05-19T03:21:14.532Z,21.30
2018-05-19T03:22:14.513Z,19.60
2018-05-19T03:23:14.501Z,18.80
2018-05-19T03:24:14.487Z,22.20
2018-05-19T03:25:14.455Z,21.70
2018-05-19T03:26:14.439Z,21.40
2018-05-19T03:27:14.423Z,23.70
2018-05-19T03:28:14.403Z,19.10
2018-05-19T03:29:14.384Z,19.40
2018-05-19T03:30:14.369Z,19.70
2018-05-19T03:31:14.346Z,18.40
2018-05-19T03:32:14.329Z,19.00
2018-05-19T03:33:14.306Z,18.30
2018-05-19T03:34:14.292Z,19.60
2018-05-19T03:35:14.274Z,17.30
2018-05-19T03:36:14.253Z,18.90
2018-05-19T03:37:14.234Z,19.70
2018-05-19T03:38:14.218Z,17.40
2018-05-19T03:39:14.199Z,18.80
2018-05-19T03:40:14.183Z,19.40
2018-05-19T03:41:14.163Z,21.60
2018-05-19T03:42:14.140Z,17.70
2018-05-19T03:43:14.124Z,19.30
2018-05-19T03:44:14.120Z,18.70
2018-05-19T03:45:14.085Z,17.70
2018-05-19T03:46:14.070Z,19.40
2018-05-19T03:47:14.048Z,19.00
2018-05-19T03:48:14.031Z,18.50
2018-05-19T03:49:14.010Z,19.50
2018-05-19T03:50:13.994Z,18.70
2018-05-19T03:51:13.974Z,18.60
2018-05-19T03:52:13.958Z,20.70
2018-05-19T03:53:13.937Z,20.60
2018-05-19T03:54:13.919Z,19.30
2018-05-19T03:55:13.902Z,22.20
2018-05-19T03:56:13.887Z,19.40
2018-05-19T03:57:13.871Z,20.40
2018-05-19T03:58:13.850Z,19.10
2018-05-19T03:59:13.839Z,20.90
2018-05-19T04:00:13.839Z,21.90
2018-05-19T04:01:13.788Z,22.50
2018-05-19T04:02:13.774Z,19.20
2018-05-19T04:03:13.752Z,18.90
2018-05-19T04:04:13.737Z,20.10
2018-05-19T04:05:13.723Z,23.00
2018-05-19T04:06:13.699Z,21.00
2018-05-19T04:07:13.677Z,20.40
2018-05-19T04:08:13.659Z,20.20
2018-05-19T04:09:13.642Z,19.20
2018-05-19T04:10:13.630Z,19.90
2018-05-19T04:11:13.602Z,21.20
2018-05-19T04:12:13.588Z,22.70
2018-05-19T04:13:13.572Z,20.00
2018-05-19T04:14:13.610Z,21.00
2018-05-19T04:15:13.528Z,27.60
2018-05-19T04:16:13.511Z,19.10
2018-05-19T04:17:13.491Z,20.60
2018-05-19T04:18:13.477Z,21.00
2018-05-19T04:19:13.457Z,20.80
2018-05-19T04:20:13.437Z,21.50
2018-05-19T04:21:13.418Z,19.90
2018-05-19T04:22:13.399Z,21.30
2018-05-19T04:23:13.384Z,19.90
2018-05-19T04:24:13.367Z,21.70
2018-05-19T04:25:13.349Z,23.20
2018-05-19T04:26:13.327Z,24.40
2018-05-19T04:27:13.311Z,22.50
2018-05-19T04:28:13.287Z,26.00
2018-05-19T04:29:13.276Z,23.30
2018-05-19T04:30:13.254Z,20.80
2018-05-19T04:31:13.232Z,22.10
2018-05-19T04:32:13.214Z,25.20
2018-05-19T04:33:13.196Z,22.30
2018-05-19T04:34:13.185Z,22.40
2018-05-19T04:35:13.160Z,26.70
2018-05-19T04:36:13.141Z,26.20
2018-05-19T04:37:13.121Z,23.70
2018-05-19T04:38:13.103Z,23.30
2018-05-19T04:39:13.090Z,26.50
2018-05-19T04:40:13.066Z,23.00
2018-05-19T04:41:13.059Z,21.70
2018-05-19T04:42:13.033Z,20.60
2018-05-19T04:43:13.010Z,23.00
2018-05-19T04:44:12.991Z,21.10
2018-05-19T04:45:12.970Z,25.70
2018-05-19T04:46:12.956Z,23.60
2018-05-19T04:47:12.940Z,25.00
2018-05-19T04:48:12.918Z,22.80
2018-05-19T04:49:12.901Z,27.40
2018-05-19T04:50:12.880Z,23.60
2018-05-19T04:51:12.862Z,24.90
2018-05-19T04:52:12.848Z,24.50
2018-05-19T04:53:12.827Z,24.90
2018-05-19T04:54:12.809Z,23.00
2018-05-19T04:55:12.791Z,24.90
2018-05-19T04:56:12.773Z,23.50
2018-05-19T04:57:12.751Z,25.00
2018-05-19T04:58:12.737Z,23.10
2018-05-19T04:59:12.718Z,24.00
2018-05-19T05:00:12.702Z,22.70
2018-05-19T05:01:12.678Z,22.00
2018-05-19T05:02:12.658Z,22.10
2018-05-19T05:03:12.640Z,26.70
2018-05-19T05:04:12.628Z,22.50
2018-05-19T05:05:12.612Z,22.90
2018-05-19T05:06:12.601Z,21.30
2018-05-19T05:07:12.570Z,22.20
2018-05-19T05:08:12.554Z,22.90
2018-05-19T05:09:12.535Z,24.00
2018-05-19T05:10:12.522Z,25.40
2018-05-19T05:11:12.496Z,25.70
2018-05-19T05:12:12.480Z,21.60
2018-05-19T05:13:12.459Z,22.30
2018-05-19T05:14:12.442Z,22.50
2018-05-19T05:15:12.427Z,23.50
2018-05-19T05:16:12.404Z,19.70
2018-05-19T05:17:12.384Z,20.70
2018-05-19T05:18:12.372Z,22.40
2018-05-19T05:19:12.351Z,23.00
2018-05-19T05:20:12.335Z,21.10
2018-05-19T05:21:12.317Z,23.60
2018-05-19T05:22:12.293Z,24.50
2018-05-19T05:23:12.275Z,22.60
2018-05-19T05:24:12.258Z,22.20
2018-05-19T05:25:12.241Z,21.50
2018-05-19T05:26:12.219Z,22.30
2018-05-19T05:27:12.259Z,26.00
2018-05-19T05:28:12.191Z,22.80
2018-05-19T05:29:12.170Z,24.70
2018-05-19T05:30:12.151Z,25.30
2018-05-19T05:31:12.128Z,22.00
2018-05-19T05:32:12.113Z,21.10
2018-05-19T05:33:12.099Z,21.70
2018-05-19T05:34:12.082Z,24.80
2018-05-19T05:35:12.059Z,27.00
2018-05-19T05:36:12.042Z,22.90
2018-05-19T05:37:12.023Z,23.00
2018-05-19T05:38:12.015Z,26.00
2018-05-19T05:39:11.984Z,21.80
2018-05-19T05:40:11.969Z,20.00
2018-05-19T05:41:11.951Z,19.30
2018-05-19T05:42:11.930Z,24.60
2018-05-19T05:43:11.927Z,18.40
2018-05-19T05:44:11.893Z,24.30
2018-05-19T05:45:11.876Z,21.70
2018-05-19T05:46:11.862Z,22.40
2018-05-19T05:47:11.853Z,23.00
2018-05-19T05:48:11.824Z,26.50
2018-05-19T05:49:11.803Z,24.60
2018-05-19T05:50:11.859Z,18.60
2018-05-19T05:51:11.770Z,20.80
2018-05-19T05:52:11.758Z,21.00
2018-05-19T05:53:11.734Z,19.90
2018-05-19T05:54:11.718Z,21.10
2018-05-19T05:55:11.700Z,22.40
2018-05-19T05:56:11.679Z,19.90
2018-05-19T05:57:11.661Z,21.20
2018-05-19T05:58:11.644Z,21.60
2018-05-19T05:59:11.623Z,19.60
2018-05-19T06:00:11.606Z,21.60
2018-05-19T06:01:11.590Z,17.60
2018-05-19T06:02:11.569Z,20.40
2018-05-19T06:03:11.553Z,21.40
2018-05-19T06:04:11.538Z,20.10
2018-05-19T06:05:11.523Z,18.90
2018-05-19T06:06:11.503Z,19.40
2018-05-19T06:07:11.481Z,16.40
2018-05-19T06:08:11.465Z,19.60
2018-05-19T06:09:11.447Z,16.10
2018-05-19T06:10:11.428Z,19.20
2018-05-19T06:11:11.410Z,18.90
2018-05-19T06:12:11.412Z,22.70
2018-05-19T06:13:11.380Z,16.70
2018-05-19T06:14:11.356Z,18.70
2018-05-19T06:51:15.910Z,14.60
2018-05-19T06:52:15.908Z,19.40
2018-05-19T06:53:15.880Z,15.50
2018-05-19T06:54:15.857Z,20.70
2018-05-19T06:55:15.841Z,20.20
2018-05-19T06:56:15.819Z,21.70
2018-05-19T06:57:15.804Z,18.80
2018-05-19T06:58:15.788Z,21.60
2018-05-19T06:59:15.766Z,17.50
2018-05-19T07:00:15.755Z,18.80
2018-05-19T07:01:15.734Z,22.50
2018-05-19T07:02:15.717Z,19.40
2018-05-19T07:03:15.705Z,21.50
2018-05-19T07:04:15.677Z,21.70
2018-05-19T07:05:15.661Z,23.20
2018-05-19T07:06:15.643Z,17.80
2018-05-19T07:07:15.640Z,19.00
2018-05-19T07:08:15.649Z,21.00
2018-05-19T07:09:15.589Z,18.50
2018-05-19T07:10:15.577Z,19.20
2018-05-19T07:11:15.556Z,20.00
2018-05-19T07:12:15.548Z,18.20
2018-05-19T07:13:15.619Z,19.60
2018-05-19T07:14:15.509Z,21.50
2018-05-19T07:15:15.481Z,19.60
2018-05-19T07:16:15.519Z,21.70
2018-05-19T07:17:15.445Z,18.10
2018-05-19T07:18:15.429Z,18.50
2018-05-19T07:19:15.411Z,20.40
2018-05-19T07:20:15.402Z,18.10
2018-05-19T07:21:15.429Z,19.10
2018-05-19T07:22:16.573Z,22.80
2018-05-19T07:23:15.434Z,21.00
2018-05-19T07:24:15.325Z,16.70
2018-05-19T07:25:15.307Z,18.80
2018-05-19T07:26:15.285Z,18.40
2018-05-19T07:27:15.270Z,19.40
2018-05-19T07:28:15.254Z,24.60
2018-05-19T07:29:15.258Z,17.10
2018-05-19T07:30:15.213Z,20.20
2018-05-19T07:31:15.196Z,19.90
2018-05-19T07:32:15.271Z,17.60
2018-05-19T07:33:15.175Z,20.80
2018-05-19T07:34:15.145Z,20.30
2018-05-19T07:35:15.232Z,19.70
2018-05-19T07:36:58.645Z,20.80
2018-05-19T07:37:58.622Z,19.30
2018-05-19T07:38:58.615Z,20.20
2018-05-19T07:39:58.591Z,20.50
2018-05-19T07:40:58.570Z,21.70
2018-05-19T07:41:58.553Z,19.10
2018-05-19T07:42:58.535Z,16.60
2018-05-19T07:43:58.521Z,19.60
2018-05-19T07:44:58.553Z,18.50
2018-05-19T07:45:58.483Z,19.00
2018-05-19T07:46:58.464Z,20.30
2018-05-19T07:47:58.503Z,19.30
2018-05-19T07:48:58.434Z,22.20
2018-05-19T07:49:58.417Z,20.70
2018-05-19T07:50:58.392Z,17.60
2018-05-19T07:51:58.377Z,21.60
2018-05-19T07:52:58.367Z,18.10
2018-05-19T07:53:58.360Z,22.30
2018-05-19T07:54:58.325Z,20.70
2018-05-19T07:55:58.317Z,17.20
2018-05-19T07:56:58.291Z,18.80
2018-05-19T07:57:58.275Z,19.40
2018-05-19T07:58:58.259Z,21.80
2018-05-19T07:59:58.241Z,19.90
2018-05-19T08:00:58.342Z,19.10
2018-05-19T08:01:58.208Z,22.80
2018-05-19T08:02:58.187Z,21.40
2018-05-19T08:03:58.278Z,18.90
2018-05-19T08:04:58.157Z,22.60
2018-05-19T08:05:58.146Z,23.00
2018-05-19T08:06:58.117Z,21.00
2018-05-19T08:07:58.103Z,23.20
2018-05-19T08:08:58.091Z,20.90
2018-05-19T08:09:58.084Z,21.00
2018-05-19T08:10:58.052Z,21.00
2018-05-19T08:11:58.036Z,22.40
2018-05-19T08:12:58.016Z,19.90
2018-05-19T08:13:58.004Z,21.40
2018-05-19T08:14:57.980Z,21.60
2018-05-19T08:15:57.981Z,24.10
2018-05-19T08:16:57.959Z,22.40
2018-05-19T08:17:57.930Z,22.70
2018-05-19T08:18:57.916Z,24.10
2018-05-19T08:19:57.899Z,24.70
2018-05-19T08:20:57.888Z,21.30
2018-05-19T08:21:57.862Z,23.70
2018-05-19T08:22:57.847Z,27.60
2018-05-19T08:23:57.836Z,25.20
2018-05-19T08:24:57.815Z,24.50
2018-05-19T08:25:57.798Z,28.90
2018-05-19T08:26:57.781Z,23.90
2018-05-19T08:27:57.863Z,23.80
2018-05-19T08:28:57.752Z,22.90
2018-05-19T08:29:57.731Z,24.90
2018-05-19T08:30:57.712Z,28.40
2018-05-19T08:31:57.698Z,24.30
2018-05-19T08:32:57.687Z,25.00
2018-05-19T08:33:57.661Z,24.10
2018-05-19T08:34:57.643Z,21.50
2018-05-19T08:35:57.631Z,26.60
2018-05-19T08:36:57.617Z,22.70
2018-05-19T08:37:57.599Z,24.20
2018-05-19T08:38:57.576Z,24.10
2018-05-19T08:39:57.561Z,21.70
2018-05-19T08:40:57.545Z,19.20
2018-05-19T08:41:57.537Z,25.00
2018-05-19T08:42:57.521Z,22.60
2018-05-19T08:43:57.512Z,22.80
2018-05-19T08:44:57.484Z,20.10
2018-05-19T08:45:57.467Z,18.70
2018-05-19T08:46:57.551Z,20.90
2018-05-19T08:47:57.446Z,20.80
2018-05-19T08:48:57.436Z,24.20
2018-05-19T08:49:57.397Z,21.40
2018-05-19T08:50:57.382Z,22.40
2018-05-19T08:51:57.364Z,26.20
2018-05-19T08:52:57.348Z,24.90
2018-05-19T08:53:57.340Z,23.70
2018-05-19T08:54:57.314Z,25.30
2018-05-19T08:55:57.298Z,24.40
2018-05-19T08:56:57.283Z,28.80
2018-05-19T08:57:57.274Z,23.00
2018-05-19T08:58:57.248Z,23.50
2018-05-19T08:59:57.247Z,24.80
2018-05-19T09:00:57.216Z,25.50
2018-05-19T09:01:57.196Z,24.10
2018-05-19T09:02:57.184Z,23.80
2018-05-19T09:03:57.182Z,27.00
2018-05-19T09:04:57.153Z,25.00
2018-05-19T09:05:57.131Z,25.20
2018-05-19T09:06:57.113Z,25.30
2018-05-19T09:07:57.115Z,62.40
2018-05-19T09:08:57.082Z,30.40
2018-05-19T09:09:57.071Z,33.20
2018-05-19T09:10:57.046Z,25.80
2018-05-19T09:11:57.035Z,23.20
2018-05-19T09:12:57.016Z,23.70
2018-05-19T09:13:57.010Z,20.30
2018-05-19T09:14:56.981Z,23.80
2018-05-19T09:15:56.969Z,26.00
2018-05-19T09:16:56.956Z,24.40
2018-05-19T09:17:56.931Z,24.80
2018-05-19T09:18:56.917Z,21.60
2018-05-19T09:19:56.897Z,24.80
2018-05-19T09:20:56.903Z,29.20
2018-05-19T09:21:56.870Z,22.30
2018-05-19T09:22:56.848Z,22.70
2018-05-19T09:23:56.831Z,25.20
2018-05-19T09:24:56.816Z,25.20
2018-05-19T09:25:56.803Z,21.50
2018-05-19T09:26:56.907Z,24.40
2018-05-19T09:27:56.777Z,28.10
2018-05-19T09:28:56.762Z,22.30
2018-05-19T09:29:56.864Z,26.10
2018-05-19T09:30:56.736Z,27.50
2018-05-19T09:31:56.702Z,23.20
2018-05-19T09:32:56.689Z,23.20
2018-05-19T09:33:56.667Z,25.70
2018-05-19T09:34:56.651Z,24.80
2018-05-19T09:35:56.634Z,25.30
2018-05-19T09:36:56.632Z,24.20
2018-05-19T09:37:56.603Z,26.20
2018-05-19T09:38:56.581Z,25.80
2018-05-19T09:39:56.582Z,24.90
2018-05-19T09:40:56.565Z,24.80
2018-05-19T09:41:56.535Z,22.60
2018-05-19T09:42:56.515Z,23.30
2018-05-19T09:43:56.518Z,21.20
2018-05-19T09:44:56.484Z,23.90
2018-05-19T09:45:56.472Z,24.30
2018-05-19T09:46:56.457Z,21.10
2018-05-19T09:47:56.446Z,28.30
2018-05-19T09:48:56.464Z,24.80
2018-05-19T09:49:56.404Z,24.40
2018-05-19T09:50:56.388Z,21.40
2018-05-19T09:51:56.371Z,21.90
2018-05-19T09:52:56.353Z,23.30
2018-05-19T09:53:56.341Z,23.60
2018-05-19T09:54:56.332Z,21.40
2018-05-19T09:55:56.299Z,22.20
2018-05-19T09:56:56.290Z,25.00
2018-05-19T09:57:56.268Z,22.10
2018-05-19T09:58:56.252Z,25.00
2018-05-19T09:59:56.245Z,24.10
2018-05-19T10:00:56.221Z,21.10
2018-05-19T10:01:56.304Z,21.50
2018-05-19T10:02:56.199Z,22.30
2018-05-19T10:03:56.179Z,23.10
2018-05-19T10:04:56.217Z,21.30
2018-05-19T10:05:56.137Z,25.10
2018-05-19T10:06:56.123Z,20.10
2018-05-19T10:07:56.113Z,23.70
2018-05-19T10:08:56.091Z,24.00
2018-05-19T10:09:56.078Z,22.80
2018-05-19T10:10:56.066Z,20.90
2018-05-19T10:11:56.041Z,23.00
2018-05-19T10:12:56.033Z,21.50
2018-05-19T10:13:56.059Z,23.30
2018-05-19T10:14:55.990Z,25.00
2018-05-19T10:15:55.977Z,20.10
2018-05-19T10:16:55.963Z,20.80
2018-05-19T10:17:55.947Z,23.30
2018-05-19T10:18:55.928Z,21.40
2018-05-19T10:19:55.911Z,22.90
2018-05-19T10:20:55.900Z,28.80
2018-05-19T10:21:55.896Z,20.30
2018-05-19T10:22:55.930Z,23.80
2018-05-19T10:23:55.847Z,21.10
2018-05-19T10:24:55.831Z,22.00
2018-05-19T10:25:55.969Z,23.60
2018-05-19T10:26:55.801Z,24.20
2018-05-19T10:27:55.787Z,20.00
2018-05-19T10:28:55.817Z,20.10
2018-05-19T10:29:55.770Z,22.80
2018-05-19T10:30:55.794Z,21.80
2018-05-19T10:31:55.725Z,19.90
2018-05-19T10:32:55.709Z,21.00
2018-05-19T10:33:55.693Z,19.60
2018-05-19T10:34:55.672Z,20.00
2018-05-19T10:35:55.659Z,20.40
2018-05-19T10:36:55.643Z,20.30
2018-05-19T10:37:55.636Z,20.20
2018-05-19T10:38:55.616Z,19.10
2018-05-19T10:39:55.606Z,18.30
2018-05-19T10:40:55.579Z,23.50
2018-05-19T10:41:55.652Z,18.80
2018-05-19T10:42:55.547Z,20.20
2018-05-19T10:43:55.547Z,20.20
2018-05-19T10:44:55.522Z,21.00
2018-05-19T10:45:55.503Z,20.30
2018-05-19T10:46:55.487Z,20.20
2018-05-19T10:47:55.469Z,21.90
2018-05-19T10:48:55.460Z,23.70
2018-05-19T10:49:55.437Z,20.20
2018-05-19T10:50:55.419Z,21.60
2018-05-19T10:51:55.406Z,18.30
2018-05-19T10:52:55.390Z,18.70
2018-05-19T10:53:55.374Z,22.50
2018-05-19T10:54:55.366Z,22.00
2018-05-19T10:55:55.344Z,18.50
2018-05-19T10:56:55.336Z,19.20
2018-05-19T10:57:55.310Z,19.60
2018-05-19T10:58:55.295Z,20.60
2018-05-19T10:59:55.281Z,19.90
2018-05-19T11:00:55.272Z,20.60
2018-05-19T11:01:55.247Z,20.00
2018-05-19T11:02:55.240Z,21.60
2018-05-19T11:03:55.366Z,21.60
2018-05-19T11:04:55.198Z,19.90
2018-05-19T11:05:55.186Z,21.60
2018-05-19T11:06:55.178Z,18.40
2018-05-19T11:07:55.228Z,21.00
2018-05-19T11:08:55.142Z,19.30
2018-05-19T11:09:55.175Z,22.70
2018-05-19T11:10:55.106Z,23.60
2018-05-19T11:11:55.144Z,19.80
2018-05-19T11:12:55.082Z,21.60
2018-05-19T11:13:55.072Z,20.10
2018-05-19T11:14:55.046Z,18.60
2018-05-19T11:15:55.030Z,19.80
2018-05-19T11:16:55.017Z,19.80
2018-05-19T11:17:55.000Z,20.00
2018-05-19T11:18:55.087Z,18.80
2018-05-19T11:19:54.973Z,20.00
2018-05-19T11:20:54.953Z,21.00
2018-05-19T11:21:54.940Z,21.60
2018-05-19T11:22:54.926Z,21.20
2018-05-19T11:23:54.908Z,18.30
2018-05-19T11:24:54.892Z,19.00
2018-05-19T11:25:54.876Z,19.60
2018-05-19T11:26:54.864Z,20.60
2018-05-19T11:27:54.840Z,21.40
2018-05-19T11:28:54.826Z,22.00
2018-05-19T11:29:54.813Z,20.20
2018-05-19T11:30:54.836Z,21.80
2018-05-19T11:31:54.784Z,21.90
2018-05-19T11:32:54.766Z,18.30
2018-05-19T11:33:54.796Z,21.00
2018-05-19T11:34:54.734Z,21.10
2018-05-19T11:35:54.767Z,21.70
2018-05-19T11:36:54.710Z,21.30
2018-05-19T11:37:54.685Z,21.10
2018-05-19T11:38:54.679Z,19.30
2018-05-19T11:39:54.654Z,20.30
2018-05-19T11:40:54.637Z,23.40
2018-05-19T11:41:54.635Z,19.50
2018-05-19T11:42:54.612Z,20.10
2018-05-19T11:43:54.592Z,21.80
2018-05-19T11:44:54.581Z,20.70
2018-05-19T11:45:54.557Z,22.00
2018-05-19T11:46:54.562Z,20.30
2018-05-19T11:47:54.526Z,20.20
2018-05-19T11:48:54.509Z,19.40
2018-05-19T11:49:54.574Z,22.70
2018-05-19T11:50:54.488Z,24.70
2018-05-19T11:51:54.468Z,20.40
2018-05-19T11:52:54.450Z,20.50
2018-05-19T11:53:54.435Z,20.90
2018-05-19T11:54:54.420Z,25.40
2018-05-19T11:55:54.420Z,23.20
2018-05-19T11:56:54.390Z,21.60
2018-05-19T11:57:54.390Z,20.70
2018-05-19T11:58:54.355Z,19.70
2018-05-19T11:59:54.344Z,24.50
2018-05-19T12:00:54.331Z,23.10
2018-05-19T12:01:54.347Z,20.70
2018-05-19T12:02:54.355Z,22.60
2018-05-19T12:03:54.288Z,22.90
2018-05-19T12:04:54.263Z,21.20
2018-05-19T12:05:54.251Z,21.30
2018-05-19T12:06:54.228Z,19.80
2018-05-19T12:07:54.226Z,19.90
2018-05-19T12:08:54.204Z,19.70
2018-05-19T12:09:54.184Z,19.70
2018-05-19T12:10:54.169Z,19.80
2018-05-19T12:11:54.292Z,22.60
2018-05-19T12:12:54.139Z,21.40
2018-05-19T12:13:54.120Z,19.20
2018-05-19T12:14:54.107Z,19.20
2018-05-19T12:15:54.089Z,22.40
2018-05-19T12:16:54.077Z,22.10
2018-05-19T12:17:54.057Z,19.70
2018-05-19T12:18:54.040Z,22.40
2018-05-19T12:19:54.027Z,19.70
2018-05-19T12:20:54.011Z,20.30
2018-05-19T12:21:54.020Z,21.80
2018-05-19T12:22:54.068Z,19.10
2018-05-19T12:23:53.963Z,20.50
2018-05-19T12:24:53.945Z,20.90
2018-05-19T12:25:53.929Z,19.50
2018-05-19T12:26:53.913Z,20.50
2018-05-19T12:27:53.905Z,21.10
2018-05-19T12:28:53.948Z,21.80
2018-05-19T12:29:53.869Z,19.50
2018-05-19T12:30:53.852Z,19.20
2018-05-19T12:31:53.843Z,20.80
2018-05-19T12:32:53.831Z,19.20
2018-05-19T12:33:53.821Z,21.00
2018-05-19T12:34:53.790Z,20.50
2018-05-19T12:35:53.772Z,22.30
2018-05-19T12:36:53.759Z,20.70
2018-05-19T12:37:53.742Z,21.00
2018-05-19T12:38:53.727Z,19.30
2018-05-19T12:39:53.715Z,20.10
2018-05-19T12:40:53.700Z,21.80
2018-05-19T12:41:53.698Z,18.30
2018-05-19T12:42:53.669Z,20.30
2018-05-19T12:43:53.649Z,18.60
2018-05-19T12:44:53.653Z,19.80
2018-05-19T12:45:53.618Z,20.10
2018-05-19T12:46:53.605Z,18.40
2018-05-19T12:47:53.584Z,18.70
2018-05-19T12:48:53.724Z,18.50
2018-05-19T12:49:53.559Z,17.90
2018-05-19T12:50:53.544Z,21.80
2018-05-19T12:51:53.540Z,20.90
2018-05-19T12:52:53.522Z,18.20
2018-05-19T12:53:53.512Z,17.20
2018-05-19T12:54:53.533Z,19.30
2018-05-19T12:55:53.472Z,16.40
2018-05-19T12:56:53.608Z,16.70
2018-05-19T12:57:53.441Z,19.20
2018-05-19T12:58:53.421Z,16.00
2018-05-19T12:59:53.409Z,19.00
2018-05-19T13:00:53.389Z,16.70
2018-05-19T13:01:53.458Z,17.40
2018-05-19T13:02:53.374Z,16.40
2018-05-19T13:03:53.372Z,16.40
2018-05-19T13:04:53.330Z,21.00
2018-05-19T13:05:53.329Z,17.40
2018-05-19T13:06:53.308Z,19.70
2018-05-19T13:07:53.288Z,18.20
2018-05-19T13:08:53.273Z,19.80
2018-05-19T13:09:53.269Z,21.80
2018-05-19T13:10:53.247Z,18.20
2018-05-19T13:11:53.231Z,17.70
2018-05-19T13:12:53.218Z,17.50
2018-05-19T13:13:53.202Z,17.40
2018-05-19T13:14:53.192Z,16.80
2018-05-19T13:15:53.284Z,19.20
2018-05-19T13:16:53.154Z,18.50
2018-05-19T13:17:53.141Z,18.40
2018-05-19T13:18:53.131Z,18.70
2018-05-19T13:19:53.112Z,22.30
2018-05-19T13:20:53.100Z,17.60
2018-05-19T13:21:53.079Z,19.90
2018-05-19T13:22:53.067Z,17.00
2018-05-19T13:23:53.049Z,17.70
2018-05-19T13:24:53.045Z,19.90
2018-05-19T13:25:53.031Z,19.90
2018-05-19T13:26:53.004Z,17.60
2018-05-19T13:27:52.989Z,18.40
2018-05-19T13:28:52.980Z,21.20